createdAt,value
2017-07-05T00:00:33.636Z,0
2017-07-05T00:01:13.973Z,0
2017-07-05T00:01:54.104Z,0
2017-07-05T00:02:34.436Z,0
2017-07-05T00:03:14.873Z,0
2017-07-05T00:03:55.502Z,0
2017-07-05T00:04:35.639Z,0
2017-07-05T00:05:15.861Z,0
2017-07-05T00:05:55.992Z,0
2017-07-05T00:06:36.354Z,0
2017-07-05T00:07:16.792Z,0
2017-07-05T00:07:56.917Z,0
2017-07-05T00:08:37.356Z,0
2017-07-05T00:09:17.990Z,0
2017-07-05T00:09:58.424Z,0
2017-07-05T00:10:38.866Z,0
2017-07-05T00:11:18.990Z,0
2017-07-05T00:11:59.430Z,0
2017-07-05T00:12:39.864Z,0
2017-07-05T00:13:19.796Z,0
2017-07-05T00:13:59.932Z,0
2017-07-05T00:14:40.271Z,0
2017-07-05T00:15:20.509Z,0
2017-07-05T00:16:00.336Z,0
2017-07-05T00:16:40.778Z,0
2017-07-05T00:17:20.905Z,0
2017-07-05T00:18:01.356Z,0
2017-07-05T00:18:41.704Z,0
2017-07-05T00:19:21.846Z,0
2017-07-05T00:20:02.092Z,0
2017-07-05T00:20:42.426Z,0
2017-07-05T00:21:22.777Z,0
2017-07-05T00:22:03.006Z,0
2017-07-05T00:22:43.349Z,0
2017-07-05T00:23:23.897Z,0
2017-07-05T00:24:04.132Z,0
2017-07-05T00:24:44.277Z,0
2017-07-05T00:25:24.813Z,0
2017-07-05T00:26:04.850Z,0
2017-07-05T00:26:45.081Z,0
2017-07-05T00:27:25.412Z,0
2017-07-05T00:28:05.849Z,0
2017-07-05T00:28:46.386Z,0
2017-07-05T00:29:26.623Z,0
2017-07-05T00:30:06.653Z,0
2017-07-05T00:30:47.188Z,0
2017-07-05T00:31:27.618Z,0
2017-07-05T00:32:08.150Z,0
2017-07-05T00:32:48.787Z,0
2017-07-05T00:33:29.017Z,0
2017-07-05T00:34:09.255Z,0
2017-07-05T00:34:49.585Z,0
2017-07-05T00:35:29.914Z,0
2017-07-05T00:36:10.345Z,0
2017-07-05T00:36:50.578Z,0
2017-07-05T00:37:30.814Z,0
2017-07-05T00:38:10.948Z,0
2017-07-05T00:38:51.179Z,0
2017-07-05T00:39:31.708Z,0
2017-07-05T00:40:12.344Z,0
2017-07-05T00:40:52.677Z,0
2017-07-05T00:41:32.805Z,0
2017-07-05T00:42:13.145Z,0
2017-07-05T00:42:53.388Z,0
2017-07-05T00:43:33.822Z,0
2017-07-05T00:44:13.958Z,0
2017-07-05T00:44:54.390Z,0
2017-07-05T00:45:34.834Z,0
2017-07-05T00:46:14.764Z,0
2017-07-05T00:46:54.902Z,0
2017-07-05T00:47:35.155Z,0
2017-07-05T00:48:15.591Z,0
2017-07-05T00:48:55.824Z,0
2017-07-05T00:49:36.467Z,0
2017-07-05T00:50:16.895Z,0
2017-07-05T00:50:56.822Z,0
2017-07-05T00:51:36.960Z,0
2017-07-05T00:52:16.999Z,0
2017-07-05T00:52:58.873Z,0
2017-07-05T00:53:39.404Z,0
2017-07-05T00:54:19.729Z,0
2017-07-05T00:54:59.855Z,0
2017-07-05T00:55:40.086Z,0
2017-07-05T00:56:20.529Z,0
2017-07-05T00:57:00.457Z,0
2017-07-05T00:57:40.692Z,0
2017-07-05T00:58:20.525Z,0
2017-07-05T00:59:01.261Z,0
2017-07-05T00:59:41.794Z,0
2017-07-05T01:00:22.026Z,0
2017-07-05T01:01:02.471Z,0
2017-07-05T01:01:43.006Z,0
2017-07-05T01:02:23.439Z,0
2017-07-05T01:03:03.769Z,0
2017-07-05T01:03:44.359Z,0
2017-07-05T01:04:25.401Z,0
2017-07-05T01:05:05.623Z,0
2017-07-05T01:05:46.359Z,0
2017-07-05T01:06:28.938Z,0
2017-07-05T01:07:08.980Z,0
2017-07-05T01:07:49.308Z,0
2017-07-05T01:08:29.544Z,0
2017-07-05T01:09:09.680Z,0
2017-07-05T01:09:49.615Z,0
2017-07-05T01:10:29.745Z,0
2017-07-05T01:11:09.779Z,0
2017-07-05T01:11:50.324Z,0
2017-07-05T01:12:30.452Z,0
2017-07-05T01:13:10.585Z,0
2017-07-05T01:13:50.911Z,0
2017-07-05T01:14:30.944Z,0
2017-07-05T01:15:11.273Z,0
2017-07-05T01:15:51.202Z,0
2017-07-05T01:16:31.635Z,0
2017-07-05T01:17:11.673Z,0
2017-07-05T01:17:51.908Z,0
2017-07-05T01:18:31.843Z,0
2017-07-05T01:19:11.971Z,0
2017-07-05T01:19:52.406Z,0
2017-07-05T01:20:32.231Z,0
2017-07-05T01:21:12.778Z,0
2017-07-05T01:21:53.007Z,0
2017-07-05T01:22:32.944Z,0
2017-07-05T01:23:13.065Z,0
2017-07-05T01:23:53.419Z,0
2017-07-05T01:24:33.750Z,0
2017-07-05T01:25:14.182Z,0
2017-07-05T01:25:54.823Z,0
2017-07-05T01:26:35.054Z,0
2017-07-05T01:27:15.381Z,0
2017-07-05T01:27:55.709Z,0
2017-07-05T01:28:36.045Z,0
2017-07-05T01:29:16.376Z,0
2017-07-05T01:29:56.606Z,0
2017-07-05T01:30:37.135Z,0
2017-07-05T01:31:17.167Z,0
2017-07-05T01:31:57.595Z,0
2017-07-05T01:32:38.528Z,0
2017-07-05T01:33:18.863Z,0
2017-07-05T01:33:59.000Z,0
2017-07-05T01:34:39.431Z,0
2017-07-05T01:35:19.782Z,0
2017-07-05T01:36:00.010Z,0
2017-07-05T01:36:40.446Z,0
2017-07-05T01:37:20.789Z,0
2017-07-05T01:38:01.021Z,0
2017-07-05T01:38:41.065Z,0
2017-07-05T01:39:21.496Z,0
2017-07-05T01:40:01.935Z,0
2017-07-05T01:40:42.281Z,0
2017-07-05T01:41:22.519Z,0
2017-07-05T01:42:02.963Z,0
2017-07-05T01:42:43.207Z,0
2017-07-05T01:43:23.444Z,0
2017-07-05T01:44:03.873Z,0
2017-07-05T01:44:44.001Z,0
2017-07-05T01:45:24.533Z,0
2017-07-05T01:46:04.974Z,0
2017-07-05T01:46:45.341Z,0
2017-07-05T01:47:26.177Z,0
2017-07-05T01:48:06.213Z,0
2017-07-05T01:48:46.643Z,0
2017-07-05T01:49:26.876Z,0
2017-07-05T01:50:06.898Z,0
2017-07-05T01:50:46.835Z,0
2017-07-05T01:51:27.165Z,0
2017-07-05T01:52:07.801Z,0
2017-07-05T01:52:49.329Z,0
2017-07-05T01:53:29.464Z,0
2017-07-05T01:54:09.808Z,0
2017-07-05T01:54:49.924Z,0
2017-07-05T01:55:30.243Z,0
2017-07-05T01:56:10.266Z,0
2017-07-05T01:56:50.591Z,0
2017-07-05T01:57:30.850Z,0
2017-07-05T01:58:10.977Z,0
2017-07-05T01:58:51.003Z,0
2017-07-05T01:59:31.332Z,0
2017-07-05T02:00:11.777Z,0
2017-07-05T02:00:52.595Z,0
2017-07-05T02:01:32.617Z,0
2017-07-05T02:02:12.939Z,0
2017-07-05T02:02:53.286Z,0
2017-07-05T02:03:33.613Z,0
2017-07-05T02:04:13.936Z,0
2017-07-05T02:04:54.363Z,0
2017-07-05T02:05:34.592Z,0
2017-07-05T02:06:15.112Z,0
2017-07-05T02:06:55.336Z,0
2017-07-05T02:07:35.865Z,0
2017-07-05T02:08:16.193Z,0
2017-07-05T02:08:56.412Z,0
2017-07-05T02:09:36.840Z,0
2017-07-05T02:10:17.354Z,0
2017-07-05T02:10:57.283Z,0
2017-07-05T02:11:37.712Z,0
2017-07-05T02:12:17.854Z,0
2017-07-05T02:12:58.385Z,0
2017-07-05T02:13:38.812Z,0
2017-07-05T02:14:19.323Z,0
2017-07-05T02:14:59.248Z,0
2017-07-05T02:15:39.272Z,0
2017-07-05T02:16:19.704Z,0
2017-07-05T02:16:59.630Z,0
2017-07-05T02:17:39.863Z,0
2017-07-05T02:18:20.180Z,0
2017-07-05T02:19:00.313Z,0
2017-07-05T02:19:40.633Z,0
2017-07-05T02:20:21.057Z,0
2017-07-05T02:21:01.096Z,0
2017-07-05T02:21:41.223Z,0
2017-07-05T02:22:21.849Z,0
2017-07-05T02:23:02.067Z,0
2017-07-05T02:23:42.187Z,0
2017-07-05T02:24:22.718Z,0
2017-07-05T02:25:02.748Z,0
2017-07-05T02:25:42.871Z,0
2017-07-05T02:26:23.197Z,0
2017-07-05T02:27:03.436Z,0
2017-07-05T02:27:43.754Z,0
2017-07-05T02:28:23.878Z,0
2017-07-05T02:29:03.997Z,0
2017-07-05T02:29:44.228Z,0
2017-07-05T02:30:24.357Z,0
2017-07-05T02:31:04.879Z,0
2017-07-05T02:31:47.009Z,0
2017-07-05T02:32:26.938Z,0
2017-07-05T02:33:07.372Z,0
2017-07-05T02:33:47.394Z,0
2017-07-05T02:34:27.723Z,0
2017-07-05T02:35:07.946Z,0
2017-07-05T02:35:48.277Z,0
2017-07-05T02:36:28.709Z,0
2017-07-05T02:37:08.641Z,4
2017-07-05T02:37:48.965Z,4
2017-07-05T02:38:29.383Z,4
2017-07-05T02:39:09.807Z,4
2017-07-05T02:39:50.136Z,4
2017-07-05T02:40:30.478Z,4
2017-07-05T02:41:10.611Z,4
2017-07-05T02:41:50.945Z,4
2017-07-05T02:42:31.268Z,4
2017-07-05T02:43:11.688Z,4
2017-07-05T02:43:51.919Z,8
2017-07-05T02:44:32.152Z,8
2017-07-05T02:45:12.473Z,4
2017-07-05T02:45:52.902Z,8
2017-07-05T02:46:32.840Z,8
2017-07-05T02:47:13.062Z,8
2017-07-05T02:47:53.187Z,8
2017-07-05T02:48:33.405Z,8
2017-07-05T02:49:13.832Z,12
2017-07-05T02:49:54.170Z,8
2017-07-05T02:50:34.398Z,12
2017-07-05T02:51:14.518Z,12
2017-07-05T02:51:54.845Z,12
2017-07-05T02:52:35.366Z,12
2017-07-05T02:53:15.494Z,16
2017-07-05T02:53:55.915Z,16
2017-07-05T02:54:36.853Z,20
2017-07-05T02:55:17.284Z,20
2017-07-05T02:55:57.913Z,20
2017-07-05T02:56:37.949Z,24
2017-07-05T02:57:18.162Z,24
2017-07-05T02:57:58.599Z,28
2017-07-05T02:58:39.027Z,28
2017-07-05T02:59:19.265Z,32
2017-07-05T02:59:59.695Z,32
2017-07-05T03:00:40.025Z,36
2017-07-05T03:01:19.959Z,40
2017-07-05T03:01:59.986Z,44
2017-07-05T03:02:39.898Z,44
2017-07-05T03:03:20.225Z,48
2017-07-05T03:04:00.353Z,56
2017-07-05T03:04:40.406Z,56
2017-07-05T03:05:20.739Z,60
2017-07-05T03:06:00.874Z,68
2017-07-05T03:06:41.506Z,76
2017-07-05T03:07:21.637Z,80
2017-07-05T03:08:01.761Z,88
2017-07-05T03:08:42.491Z,96
2017-07-05T03:09:22.920Z,104
2017-07-05T03:10:03.446Z,108
2017-07-05T03:10:43.674Z,120
2017-07-05T03:11:24.191Z,128
2017-07-05T03:12:04.218Z,136
2017-07-05T03:12:44.345Z,140
2017-07-05T03:13:24.484Z,152
2017-07-05T03:14:04.525Z,156
2017-07-05T03:14:44.665Z,160
2017-07-05T03:15:25.199Z,164
2017-07-05T03:16:05.734Z,168
2017-07-05T03:16:46.471Z,172
2017-07-05T03:17:26.603Z,180
2017-07-05T03:18:06.919Z,188
2017-07-05T03:18:46.854Z,196
2017-07-05T03:19:26.874Z,208
2017-07-05T03:20:07.105Z,216
2017-07-05T03:20:47.340Z,228
2017-07-05T03:21:27.759Z,240
2017-07-05T03:22:07.987Z,256
2017-07-05T03:22:49.409Z,264
2017-07-05T03:23:30.140Z,276
2017-07-05T03:24:10.068Z,288
2017-07-05T03:24:50.100Z,292
2017-07-05T03:25:30.530Z,300
2017-07-05T03:26:11.066Z,312
2017-07-05T03:26:51.389Z,316
2017-07-05T03:27:31.823Z,320
2017-07-05T03:28:12.256Z,320
2017-07-05T03:28:52.787Z,316
2017-07-05T03:29:33.118Z,316
2017-07-05T03:30:13.545Z,308
2017-07-05T03:30:53.671Z,312
2017-07-05T03:31:33.701Z,316
2017-07-05T03:32:14.045Z,332
2017-07-05T03:32:54.270Z,352
2017-07-05T03:33:34.703Z,376
2017-07-05T03:34:15.331Z,400
2017-07-05T03:34:55.261Z,420
2017-07-05T03:35:35.786Z,444
2017-07-05T03:36:16.425Z,468
2017-07-05T03:36:56.757Z,488
2017-07-05T03:37:37.285Z,500
2017-07-05T03:38:17.310Z,512
2017-07-05T03:38:57.438Z,520
2017-07-05T03:39:37.864Z,528
2017-07-05T03:40:18.399Z,536
2017-07-05T03:40:58.645Z,548
2017-07-05T03:41:38.573Z,556
2017-07-05T03:42:19.106Z,560
2017-07-05T03:42:59.337Z,560
2017-07-05T03:43:39.861Z,548
2017-07-05T03:44:20.346Z,540
2017-07-05T03:45:00.663Z,536
2017-07-05T03:45:40.601Z,540
2017-07-05T03:46:21.226Z,544
2017-07-05T03:47:01.369Z,552
2017-07-05T03:47:41.702Z,560
2017-07-05T03:48:22.140Z,568
2017-07-05T03:49:02.572Z,580
2017-07-05T03:49:43.017Z,592
2017-07-05T03:50:23.665Z,596
2017-07-05T03:51:04.490Z,604
2017-07-05T03:51:44.720Z,620
2017-07-05T03:52:25.348Z,640
2017-07-05T03:53:05.780Z,664
2017-07-05T03:53:45.806Z,696
2017-07-05T03:54:26.232Z,728
2017-07-05T03:55:06.569Z,772
2017-07-05T03:55:46.588Z,828
2017-07-05T03:56:28.531Z,892
2017-07-05T03:57:08.582Z,944
2017-07-05T03:57:48.911Z,980
2017-07-05T03:58:29.026Z,1020
2017-07-05T03:59:09.447Z,1068
2017-07-05T03:59:49.580Z,1112
2017-07-05T04:00:29.907Z,1132
2017-07-05T04:01:10.332Z,1140
2017-07-05T04:01:50.452Z,1144
2017-07-05T04:02:30.677Z,1152
2017-07-05T04:03:11.309Z,1156
2017-07-05T04:03:51.740Z,1164
2017-07-05T04:04:32.173Z,1176
2017-07-05T04:05:12.600Z,1196
2017-07-05T04:05:52.832Z,1228
2017-07-05T04:06:33.261Z,1264
2017-07-05T04:07:13.498Z,1300
2017-07-05T04:07:54.216Z,1340
2017-07-05T04:08:34.545Z,1376
2017-07-05T04:09:14.572Z,1404
2017-07-05T04:09:54.792Z,1448
2017-07-05T04:10:35.127Z,1500
2017-07-05T04:11:15.453Z,1568
2017-07-05T04:11:55.785Z,1640
2017-07-05T04:12:36.211Z,1728
2017-07-05T04:13:16.336Z,1816
2017-07-05T04:13:56.459Z,1900
2017-07-05T04:14:36.389Z,1976
2017-07-05T04:15:16.821Z,2044
2017-07-05T04:15:56.752Z,2096
2017-07-05T04:16:37.385Z,2136
2017-07-05T04:17:17.616Z,2172
2017-07-05T04:17:57.749Z,2212
2017-07-05T04:18:38.079Z,2256
2017-07-05T04:19:17.809Z,2312
2017-07-05T04:19:58.447Z,2372
2017-07-05T04:20:38.269Z,2428
2017-07-05T04:21:18.397Z,2476
2017-07-05T04:21:58.928Z,2524
2017-07-05T04:22:39.156Z,2580
2017-07-05T04:23:19.689Z,2636
2017-07-05T04:24:00.015Z,2692
2017-07-05T04:24:40.251Z,2740
2017-07-05T04:25:20.675Z,2788
2017-07-05T04:26:00.609Z,2832
2017-07-05T04:26:41.143Z,2872
2017-07-05T04:27:21.465Z,2888
2017-07-05T04:28:01.798Z,2836
2017-07-05T04:28:42.135Z,2680
2017-07-05T04:29:22.075Z,2532
2017-07-05T04:30:02.607Z,2480
2017-07-05T04:30:43.235Z,2512
2017-07-05T04:31:23.675Z,2596
2017-07-05T04:32:04.002Z,2760
2017-07-05T04:32:44.835Z,2944
2017-07-05T04:33:25.268Z,3064
2017-07-05T04:34:05.605Z,3136
2017-07-05T04:34:46.037Z,3132
2017-07-05T04:35:26.491Z,3148
2017-07-05T04:36:06.716Z,3168
2017-07-05T04:36:47.155Z,3184
2017-07-05T04:37:27.391Z,3204
2017-07-05T04:38:07.323Z,3260
2017-07-05T04:38:47.859Z,3368
2017-07-05T04:39:28.082Z,3484
2017-07-05T04:40:08.621Z,3580
2017-07-05T04:40:49.150Z,3668
2017-07-05T04:41:29.278Z,3752
2017-07-05T04:42:09.513Z,3864
2017-07-05T04:42:50.837Z,3956
2017-07-05T04:43:31.370Z,4004
2017-07-05T04:44:11.697Z,4064
2017-07-05T04:44:52.036Z,4108
2017-07-05T04:45:32.171Z,4140
2017-07-05T04:46:12.704Z,4188
2017-07-05T04:46:53.039Z,4208
2017-07-05T04:47:33.066Z,4228
2017-07-05T04:48:13.494Z,4200
2017-07-05T04:48:53.924Z,4144
2017-07-05T04:49:34.070Z,4204
2017-07-05T04:50:14.491Z,4340
2017-07-05T04:50:54.922Z,4480
2017-07-05T04:51:35.058Z,4508
2017-07-05T04:52:15.086Z,4536
2017-07-05T04:52:56.163Z,4648
2017-07-05T04:53:36.457Z,4816
2017-07-05T04:54:16.690Z,4956
2017-07-05T04:54:57.012Z,5072
2017-07-05T04:55:37.353Z,5160
2017-07-05T04:56:17.772Z,5240
2017-07-05T04:56:58.401Z,5316
2017-07-05T04:57:38.428Z,5388
2017-07-05T04:58:18.567Z,5468
2017-07-05T04:58:58.716Z,5524
2017-07-05T04:59:38.550Z,5624
2017-07-05T05:00:19.280Z,5684
2017-07-05T05:00:59.811Z,5752
2017-07-05T05:01:40.370Z,5724
2017-07-05T05:02:21.286Z,5708
2017-07-05T05:03:01.708Z,5696
2017-07-05T05:03:42.440Z,5720
2017-07-05T05:04:22.576Z,5772
2017-07-05T05:05:02.747Z,5832
2017-07-05T05:05:42.975Z,5880
2017-07-05T05:06:23.515Z,5940
2017-07-05T05:07:03.652Z,5976
2017-07-05T05:07:44.097Z,5980
2017-07-05T05:08:24.339Z,5984
2017-07-05T05:09:04.679Z,6004
2017-07-05T05:09:44.712Z,6020
2017-07-05T05:10:25.154Z,6048
2017-07-05T05:11:04.889Z,6076
2017-07-05T05:11:45.024Z,6116
2017-07-05T05:12:25.369Z,6172
2017-07-05T05:13:05.842Z,6236
2017-07-05T05:13:46.361Z,6296
2017-07-05T05:14:26.680Z,6356
2017-07-05T05:15:07.109Z,6400
2017-07-05T05:15:47.343Z,6440
2017-07-05T05:16:27.690Z,6504
2017-07-05T05:17:08.116Z,6548
2017-07-05T05:17:48.150Z,6592
2017-07-05T05:18:28.579Z,6632
2017-07-05T05:19:09.207Z,6672
2017-07-05T05:19:49.137Z,6708
2017-07-05T05:20:29.371Z,6748
2017-07-05T05:21:09.704Z,6780
2017-07-05T05:21:50.437Z,6832
2017-07-05T05:22:30.284Z,6892
2017-07-05T05:23:10.321Z,6988
2017-07-05T05:23:50.465Z,7100
2017-07-05T05:24:31.102Z,7216
2017-07-05T05:25:11.729Z,7328
2017-07-05T05:25:52.181Z,7420
2017-07-05T05:26:32.719Z,7504
2017-07-05T05:27:12.950Z,7564
2017-07-05T05:27:53.185Z,7620
2017-07-05T05:28:33.617Z,7684
2017-07-05T05:29:13.907Z,7732
2017-07-05T05:29:54.488Z,7784
2017-07-05T05:30:34.422Z,7836
2017-07-05T05:31:14.957Z,7904
2017-07-05T05:31:55.294Z,7972
2017-07-05T05:32:35.926Z,7996
2017-07-05T05:33:16.262Z,7996
2017-07-05T05:33:56.797Z,7992
2017-07-05T05:34:37.026Z,8004
2017-07-05T05:35:17.362Z,8004
2017-07-05T05:35:57.692Z,8012
2017-07-05T05:36:37.824Z,8084
2017-07-05T05:37:18.152Z,8152
2017-07-05T05:37:59.192Z,8260
2017-07-05T05:38:39.739Z,8392
2017-07-05T05:39:19.962Z,8480
2017-07-05T05:40:00.301Z,8568
2017-07-05T05:40:40.526Z,8652
2017-07-05T05:41:20.763Z,8724
2017-07-05T05:42:00.990Z,8800
2017-07-05T05:42:41.319Z,8916
2017-07-05T05:43:21.556Z,9056
2017-07-05T05:44:01.590Z,9204
2017-07-05T05:44:41.528Z,9292
2017-07-05T05:45:21.656Z,9388
2017-07-05T05:46:02.185Z,9476
2017-07-05T05:46:42.445Z,9556
2017-07-05T05:47:22.977Z,9704
2017-07-05T05:48:03.414Z,9852
2017-07-05T05:48:43.653Z,9984
2017-07-05T05:49:24.196Z,10128
2017-07-05T05:50:04.728Z,10236
2017-07-05T05:50:44.682Z,10344
2017-07-05T05:51:24.808Z,10428
2017-07-05T05:52:05.149Z,10520
2017-07-05T05:52:45.675Z,10628
2017-07-05T05:53:25.818Z,10748
2017-07-05T05:54:06.454Z,11320
2017-07-05T05:54:46.983Z,13232
2017-07-05T05:55:26.939Z,15444
2017-07-05T05:56:07.374Z,16224
2017-07-05T05:56:47.606Z,15936
2017-07-05T05:57:27.941Z,16032
2017-07-05T05:58:08.070Z,16736
2017-07-05T05:58:48.246Z,17664
2017-07-05T05:59:28.678Z,18752
2017-07-05T06:00:09.214Z,20928
2017-07-05T06:00:49.038Z,23296
2017-07-05T06:01:29.173Z,26208
2017-07-05T06:02:09.508Z,27904
2017-07-05T06:02:49.550Z,29376
2017-07-05T06:03:29.886Z,30048
2017-07-05T06:04:10.113Z,30432
2017-07-05T06:04:50.757Z,31104
2017-07-05T06:05:30.990Z,31744
2017-07-05T06:06:11.517Z,31584
2017-07-05T06:06:52.159Z,30752
2017-07-05T06:07:32.187Z,31040
2017-07-05T06:08:12.326Z,32672
2017-07-05T06:08:52.460Z,34816
2017-07-05T06:09:32.803Z,36544
2017-07-05T06:10:12.841Z,36288
2017-07-05T06:10:53.281Z,36736
2017-07-05T06:11:33.511Z,36416
2017-07-05T06:12:13.841Z,36160
2017-07-05T06:12:55.007Z,36768
2017-07-05T06:13:35.152Z,38688
2017-07-05T06:14:15.497Z,38176
2017-07-05T06:14:55.631Z,36896
2017-07-05T06:15:36.067Z,38592
2017-07-05T06:16:16.509Z,43168
2017-07-05T06:16:56.752Z,44160
2017-07-05T06:17:37.090Z,45376
2017-07-05T06:18:17.414Z,44800
2017-07-05T06:18:57.965Z,43712
2017-07-05T06:19:37.905Z,41344
2017-07-05T06:20:18.137Z,37408
2017-07-05T06:20:58.682Z,37312
2017-07-05T06:21:39.016Z,38784
2017-07-05T06:22:19.354Z,41824
2017-07-05T06:22:59.898Z,43200
2017-07-05T06:23:40.041Z,42944
2017-07-05T06:24:20.366Z,43008
2017-07-05T06:25:00.505Z,44000
2017-07-05T06:25:40.650Z,44224
2017-07-05T06:26:20.902Z,45056
2017-07-05T06:27:00.749Z,46464
2017-07-05T06:27:40.981Z,47360
2017-07-05T06:28:21.226Z,48288
2017-07-05T06:29:01.360Z,49184
2017-07-05T06:29:41.301Z,48064
2017-07-05T06:30:21.544Z,47200
2017-07-05T06:31:01.786Z,47520
2017-07-05T06:31:42.037Z,48320
2017-07-05T06:32:22.671Z,48608
2017-07-05T06:33:02.907Z,48320
2017-07-05T06:33:43.037Z,48960
2017-07-05T06:34:23.276Z,49248
2017-07-05T06:35:03.527Z,48896
2017-07-05T06:35:43.662Z,47968
2017-07-05T06:36:23.813Z,48224
2017-07-05T06:37:03.752Z,47296
2017-07-05T06:37:43.818Z,48000
2017-07-05T06:38:23.756Z,48256
2017-07-05T06:39:04.099Z,50688
2017-07-05T06:39:44.938Z,50720
2017-07-05T06:40:25.082Z,50144
2017-07-05T06:41:05.125Z,50624
2017-07-05T06:41:45.576Z,51904
2017-07-05T06:42:25.740Z,51936
2017-07-05T06:43:05.892Z,52288
2017-07-05T06:43:46.350Z,50880
2017-07-05T06:44:26.584Z,50944
2017-07-05T06:45:06.525Z,51776
2017-07-05T06:45:48.363Z,53984
2017-07-05T06:46:28.610Z,57152
2017-07-05T06:47:09.152Z,63520
2017-07-05T06:47:49.592Z,68256
2017-07-05T06:48:29.634Z,70624
2017-07-05T06:49:09.775Z,72224
2017-07-05T06:49:50.114Z,73728
2017-07-05T06:50:30.557Z,75552
2017-07-05T06:51:10.404Z,75296
2017-07-05T06:51:50.943Z,75168
2017-07-05T06:52:31.486Z,75104
2017-07-05T06:53:11.725Z,76064
2017-07-05T06:53:52.669Z,76768
2017-07-05T06:54:32.705Z,76224
2017-07-05T06:55:12.849Z,75328
2017-07-05T06:55:53.290Z,74816
2017-07-05T06:56:33.527Z,74848
2017-07-05T06:57:13.874Z,77056
2017-07-05T06:57:53.715Z,78432
2017-07-05T06:58:34.164Z,78560
2017-07-05T06:59:14.504Z,80768
2017-07-05T06:59:54.849Z,81536
2017-07-05T07:00:35.189Z,81920
2017-07-05T07:01:15.046Z,79424
2017-07-05T07:01:55.286Z,77536
2017-07-05T07:02:34.932Z,74272
2017-07-05T07:03:15.177Z,72256
2017-07-05T07:03:55.216Z,75968
2017-07-05T07:04:35.555Z,77920
2017-07-05T07:05:15.995Z,81312
2017-07-05T07:05:56.536Z,83360
2017-07-05T07:06:37.081Z,84832
2017-07-05T07:07:17.427Z,85824
2017-07-05T07:07:57.574Z,88000
2017-07-05T07:08:37.816Z,88192
2017-07-05T07:09:17.867Z,89088
2017-07-05T07:09:58.111Z,89824
2017-07-05T07:10:38.558Z,90656
2017-07-05T07:11:18.705Z,90656
2017-07-05T07:11:58.948Z,90944
2017-07-05T07:12:39.493Z,89632
2017-07-05T07:13:19.835Z,88800
2017-07-05T07:14:00.290Z,89216
2017-07-05T07:14:40.633Z,89728
2017-07-05T07:15:21.295Z,91808
2017-07-05T07:16:01.341Z,90720
2017-07-05T07:16:41.596Z,91840
2017-07-05T07:17:21.939Z,93056
2017-07-05T07:18:01.985Z,91104
2017-07-05T07:18:42.364Z,88064
2017-07-05T07:19:22.711Z,89024
2017-07-05T07:20:02.858Z,89024
2017-07-05T07:20:43.199Z,87424
2017-07-05T07:21:23.450Z,86144
2017-07-05T07:22:04.003Z,89376
2017-07-05T07:22:45.438Z,89504
2017-07-05T07:23:25.494Z,89184
2017-07-05T07:24:05.646Z,90688
2017-07-05T07:24:46.191Z,92416
2017-07-05T07:25:26.239Z,93856
2017-07-05T07:26:06.980Z,92448
2017-07-05T07:26:48.236Z,93792
2017-07-05T07:27:28.486Z,93888
2017-07-05T07:28:08.735Z,94592
2017-07-05T07:28:49.278Z,95776
2017-07-05T07:29:29.335Z,95360
2017-07-05T07:30:09.573Z,95136
2017-07-05T07:30:50.623Z,95488
2017-07-05T07:31:31.291Z,94656
2017-07-05T07:32:11.739Z,94976
2017-07-05T07:32:51.984Z,95680
2017-07-05T07:33:32.428Z,94944
2017-07-05T07:34:12.783Z,94464
2017-07-05T07:34:53.427Z,94816
2017-07-05T07:35:33.499Z,97024
2017-07-05T07:36:13.958Z,95360
2017-07-05T07:36:54.394Z,94944
2017-07-05T07:37:34.935Z,92736
2017-07-05T07:38:15.187Z,86048
2017-07-05T07:38:55.630Z,84000
2017-07-05T07:39:36.078Z,78464
2017-07-05T07:40:16.431Z,72672
2017-07-05T07:40:56.786Z,74112
2017-07-05T07:41:37.237Z,74528
2017-07-05T07:42:17.490Z,73664
2017-07-05T07:42:57.529Z,73728
2017-07-05T07:43:37.793Z,75264
2017-07-05T07:44:18.156Z,74528
2017-07-05T07:44:58.544Z,71904
2017-07-05T07:45:38.892Z,74496
2017-07-05T07:46:19.131Z,75008
2017-07-05T07:46:59.482Z,76928
2017-07-05T07:47:39.936Z,77152
2017-07-05T07:48:20.379Z,76608
2017-07-05T07:49:00.427Z,77760
2017-07-05T07:49:40.277Z,78368
2017-07-05T07:50:20.612Z,77344
2017-07-05T07:51:00.664Z,77152
2017-07-05T07:51:41.215Z,81632
2017-07-05T07:52:21.260Z,82656
2017-07-05T07:53:01.419Z,79040
2017-07-05T07:53:42.178Z,81888
2017-07-05T07:54:22.219Z,81056
2017-07-05T07:55:02.467Z,80032
2017-07-05T07:55:42.921Z,79072
2017-07-05T07:56:22.872Z,82176
2017-07-05T07:57:03.419Z,80864
2017-07-05T07:57:43.399Z,81440
2017-07-05T07:58:23.335Z,79712
2017-07-05T07:59:03.382Z,79008
2017-07-05T07:59:43.433Z,80256
2017-07-05T08:00:23.976Z,82560
2017-07-05T08:01:04.123Z,84640
2017-07-05T08:01:44.367Z,87296
2017-07-05T08:02:25.139Z,90816
2017-07-05T08:03:05.876Z,93632
2017-07-05T08:03:45.931Z,97856
2017-07-05T08:04:26.381Z,99040
2017-07-05T08:05:06.723Z,100384
2017-07-05T08:05:47.518Z,99904
2017-07-05T08:06:27.665Z,97216
2017-07-05T08:07:08.019Z,96640
2017-07-05T08:07:48.192Z,95872
2017-07-05T08:08:28.834Z,97824
2017-07-05T08:09:08.981Z,100672
2017-07-05T08:09:49.529Z,100480
2017-07-05T08:10:29.883Z,100608
2017-07-05T08:11:10.530Z,100096
2017-07-05T08:11:50.483Z,103264
2017-07-05T08:12:31.023Z,106304
2017-07-05T08:13:11.777Z,103872
2017-07-05T08:13:52.035Z,101536
2017-07-05T08:14:31.979Z,102592
2017-07-05T08:15:12.126Z,104384
2017-07-05T08:15:52.480Z,104064
2017-07-05T08:16:32.729Z,107424
2017-07-05T08:17:12.883Z,108736
2017-07-05T08:17:53.458Z,106272
2017-07-05T08:18:33.604Z,98752
2017-07-05T08:19:14.049Z,100608
2017-07-05T08:19:54.406Z,106464
2017-07-05T08:20:35.057Z,105824
2017-07-05T08:21:15.406Z,106432
2017-07-05T08:21:55.362Z,106784
2017-07-05T08:22:35.712Z,107456
2017-07-05T08:23:16.273Z,109184
2017-07-05T08:23:56.430Z,108416
2017-07-05T08:24:36.691Z,105152
2017-07-05T08:25:17.037Z,99968
2017-07-05T08:25:57.389Z,96032
2017-07-05T08:26:37.336Z,99648
2017-07-05T08:27:17.385Z,108544
2017-07-05T08:27:57.836Z,103392
2017-07-05T08:28:38.281Z,103392
2017-07-05T08:29:18.836Z,109216
2017-07-05T08:29:59.390Z,108864
2017-07-05T08:30:39.443Z,108576
2017-07-05T08:31:20.201Z,104608
2017-07-05T08:32:00.750Z,105280
2017-07-05T08:32:41.505Z,108096
2017-07-05T08:33:22.160Z,114240
2017-07-05T08:34:02.623Z,115936
2017-07-05T08:34:42.981Z,113376
2017-07-05T08:35:22.939Z,109248
2017-07-05T08:36:03.190Z,106432
2017-07-05T08:36:43.643Z,109888
2017-07-05T08:37:23.796Z,112288
2017-07-05T08:38:04.144Z,109600
2017-07-05T08:38:44.194Z,105760
2017-07-05T08:39:24.454Z,103232
2017-07-05T08:40:04.606Z,102656
2017-07-05T08:40:45.361Z,105952
2017-07-05T08:41:25.418Z,109056
2017-07-05T08:42:05.690Z,111616
2017-07-05T08:42:45.879Z,109696
2017-07-05T08:43:26.648Z,105760
2017-07-05T08:44:06.797Z,108320
2017-07-05T08:44:48.148Z,113120
2017-07-05T08:45:28.499Z,114112
2017-07-05T08:46:08.755Z,111936
2017-07-05T08:46:49.503Z,109184
2017-07-05T08:47:29.853Z,108032
2017-07-05T08:48:10.318Z,107488
2017-07-05T08:48:50.467Z,107264
2017-07-05T08:49:30.422Z,111936
2017-07-05T08:50:10.766Z,116608
2017-07-05T08:50:50.817Z,115136
2017-07-05T08:51:31.175Z,104288
2017-07-05T08:52:11.322Z,96096
2017-07-05T08:52:51.277Z,100128
2017-07-05T08:53:31.629Z,101824
2017-07-05T08:54:12.195Z,107648
2017-07-05T08:54:52.551Z,112448
2017-07-05T08:55:32.702Z,114752
2017-07-05T08:56:13.060Z,116416
2017-07-05T08:56:53.502Z,111808
2017-07-05T08:57:33.763Z,113664
2017-07-05T08:58:13.936Z,114048
2017-07-05T08:58:54.494Z,114208
2017-07-05T08:59:34.849Z,116160
2017-07-05T09:00:14.901Z,114560
2017-07-05T09:00:55.371Z,111648
2017-07-05T09:01:35.822Z,111040
2017-07-05T09:02:16.383Z,110752
2017-07-05T09:02:56.942Z,112320
2017-07-05T09:03:37.104Z,113024
2017-07-05T09:04:17.255Z,115520
2017-07-05T09:04:57.616Z,115104
2017-07-05T09:05:37.781Z,113600
2017-07-05T09:06:18.722Z,115072
2017-07-05T09:06:59.582Z,113280
2017-07-05T09:07:39.238Z,111200
2017-07-05T09:08:19.293Z,109120